sensor_id;sensor_type;location;lat;lon;timestamp;temperature;humidity
65470;DHT22;52067;50.710;14.492;2023-12-04T00:01:15;-5.40;88.98
65470;DHT22;52067;50.710;14.492;2023-12-04T00:03:40;-5.47;87.84
65470;DHT22;52067;50.710;14.492;2023-12-04T00:06:06;-5.60;86.65
65470;DHT22;52067;50.710;14.492;2023-12-04T00:08:32;-5.64;87.38
65470;DHT22;52067;50.710;14.492;2023-12-04T00:10:58;-5.71;87.10
65470;DHT22;52067;50.710;14.492;2023-12-04T00:13:23;-5.86;86.88
65470;DHT22;52067;50.710;14.492;2023-12-04T00:15:49;-5.82;86.34
65470;DHT22;52067;50.710;14.492;2023-12-04T00:18:14;-5.82;86.91
65470;DHT22;52067;50.710;14.492;2023-12-04T00:20:39;-5.86;87.01
65470;DHT22;52067;50.710;14.492;2023-12-04T00:23:05;-5.91;86.89
65470;DHT22;52067;50.710;14.492;2023-12-04T00:25:30;-5.92;85.67
65470;DHT22;52067;50.710;14.492;2023-12-04T00:27:55;-5.95;85.91
65470;DHT22;52067;50.710;14.492;2023-12-04T00:30:21;-6.01;85.77
65470;DHT22;52067;50.710;14.492;2023-12-04T00:32:46;-6.27;85.72
65470;DHT22;52067;50.710;14.492;2023-12-04T00:35:11;-6.31;86.51
65470;DHT22;52067;50.710;14.492;2023-12-04T00:37:37;-6.36;86.01
65470;DHT22;52067;50.710;14.492;2023-12-04T00:40:05;-6.36;85.33
65470;DHT22;52067;50.710;14.492;2023-12-04T00:42:30;-6.53;83.74
65470;DHT22;52067;50.710;14.492;2023-12-04T00:44:56;-6.67;85.04
65470;DHT22;52067;50.710;14.492;2023-12-04T00:47:21;-6.58;84.61
65470;DHT22;52067;50.710;14.492;2023-12-04T00:49:47;-6.65;83.37
65470;DHT22;52067;50.710;14.492;2023-12-04T00:52:12;-6.85;85.04
65470;DHT22;52067;50.710;14.492;2023-12-04T00:54:40;-6.78;86.18
65470;DHT22;52067;50.710;14.492;2023-12-04T00:57:06;-6.96;85.93
65470;DHT22;52067;50.710;14.492;2023-12-04T00:59:31;-6.88;84.94
65470;DHT22;52067;50.710;14.492;2023-12-04T01:01:57;-6.85;85.30
65470;DHT22;52067;50.710;14.492;2023-12-04T01:04:22;-7.58;86.93
65470;DHT22;52067;50.710;14.492;2023-12-04T01:06:48;-7.71;86.65
65470;DHT22;52067;50.710;14.492;2023-12-04T01:09:13;-7.51;85.69
65470;DHT22;52067;50.710;14.492;2023-12-04T01:11:38;-7.88;87.03
65470;DHT22;52067;50.710;14.492;2023-12-04T01:14:04;-7.78;87.59
65470;DHT22;52067;50.710;14.492;2023-12-04T01:16:29;-7.50;89.55
65470;DHT22;52067;50.710;14.492;2023-12-04T01:18:55;-7.61;90.17
65470;DHT22;52067;50.710;14.492;2023-12-04T01:21:20;-7.78;88.14
65470;DHT22;52067;50.710;14.492;2023-12-04T01:23:45;-7.77;87.60
65470;DHT22;52067;50.710;14.492;2023-12-04T01:26:11;-8.09;89.40
65470;DHT22;52067;50.710;14.492;2023-12-04T01:28:37;-7.89;88.62
65470;DHT22;52067;50.710;14.492;2023-12-04T01:31:02;-7.89;86.90
65470;DHT22;52067;50.710;14.492;2023-12-04T01:33:29;-7.95;85.87
65470;DHT22;52067;50.710;14.492;2023-12-04T01:35:55;-8.01;85.76
65470;DHT22;52067;50.710;14.492;2023-12-04T01:38:20;-8.12;85.55
65470;DHT22;52067;50.710;14.492;2023-12-04T01:40:46;-8.11;85.39
65470;DHT22;52067;50.710;14.492;2023-12-04T01:43:11;-8.20;86.01
65470;DHT22;52067;50.710;14.492;2023-12-04T01:45:37;-8.13;87.18
65470;DHT22;52067;50.710;14.492;2023-12-04T01:48:03;-7.98;87.61
65470;DHT22;52067;50.710;14.492;2023-12-04T01:50:29;-7.82;87.71
65470;DHT22;52067;50.710;14.492;2023-12-04T01:52:55;-7.81;85.98
65470;DHT22;52067;50.710;14.492;2023-12-04T01:55:21;-7.75;85.74
65470;DHT22;52067;50.710;14.492;2023-12-04T01:57:47;-7.97;85.35
65470;DHT22;52067;50.710;14.492;2023-12-04T02:00:13;-7.75;85.05
65470;DHT22;52067;50.710;14.492;2023-12-04T02:02:40;-7.87;84.05
65470;DHT22;52067;50.710;14.492;2023-12-04T02:05:07;-8.06;85.23
65470;DHT22;52067;50.710;14.492;2023-12-04T02:07:33;-7.97;84.97
65470;DHT22;52067;50.710;14.492;2023-12-04T02:09:59;-7.92;84.93
65470;DHT22;52067;50.710;14.492;2023-12-04T02:12:25;-7.95;84.35
65470;DHT22;52067;50.710;14.492;2023-12-04T02:14:51;-7.88;83.75
65470;DHT22;52067;50.710;14.492;2023-12-04T02:17:18;-8.05;83.88
65470;DHT22;52067;50.710;14.492;2023-12-04T02:19:44;-7.97;83.97
65470;DHT22;52067;50.710;14.492;2023-12-04T02:22:09;-7.95;83.46
65470;DHT22;52067;50.710;14.492;2023-12-04T02:24:35;-7.98;83.54
65470;DHT22;52067;50.710;14.492;2023-12-04T02:27:10;-8.06;83.86
65470;DHT22;52067;50.710;14.492;2023-12-04T02:29:47;-8.19;83.73
65470;DHT22;52067;50.710;14.492;2023-12-04T02:32:18;-8.18;84.62
65470;DHT22;52067;50.710;14.492;2023-12-04T02:34:45;-8.36;84.64
65470;DHT22;52067;50.710;14.492;2023-12-04T02:37:12;-8.25;84.62
65470;DHT22;52067;50.710;14.492;2023-12-04T02:39:39;-8.19;83.39
65470;DHT22;52067;50.710;14.492;2023-12-04T02:42:05;-8.30;82.73
65470;DHT22;52067;50.710;14.492;2023-12-04T02:44:31;-8.61;84.18
65470;DHT22;52067;50.710;14.492;2023-12-04T02:46:56;-8.53;83.27
65470;DHT22;52067;50.710;14.492;2023-12-04T02:49:22;-8.61;83.73
65470;DHT22;52067;50.710;14.492;2023-12-04T02:51:47;-8.88;86.03
65470;DHT22;52067;50.710;14.492;2023-12-04T02:54:13;-8.99;86.11
65470;DHT22;52067;50.710;14.492;2023-12-04T02:56:38;-8.83;84.48
65470;DHT22;52067;50.710;14.492;2023-12-04T02:59:03;-8.95;84.22
65470;DHT22;52067;50.710;14.492;2023-12-04T03:01:29;-8.95;86.03
65470;DHT22;52067;50.710;14.492;2023-12-04T03:03:55;-8.83;85.31
65470;DHT22;52067;50.710;14.492;2023-12-04T03:06:20;-8.85;83.99
65470;DHT22;52067;50.710;14.492;2023-12-04T03:08:46;-8.90;83.83
65470;DHT22;52067;50.710;14.492;2023-12-04T03:11:11;-9.01;84.35
65470;DHT22;52067;50.710;14.492;2023-12-04T03:13:37;-9.09;84.13
65470;DHT22;52067;50.710;14.492;2023-12-04T03:16:02;-9.05;84.63
65470;DHT22;52067;50.710;14.492;2023-12-04T03:18:28;-9.02;83.66
65470;DHT22;52067;50.710;14.492;2023-12-04T03:20:54;-8.95;83.94
65470;DHT22;52067;50.710;14.492;2023-12-04T03:23:20;-8.95;84.73
65470;DHT22;52067;50.710;14.492;2023-12-04T03:25:45;-9.07;85.00
65470;DHT22;52067;50.710;14.492;2023-12-04T03:28:11;-9.23;85.47
65470;DHT22;52067;50.710;14.492;2023-12-04T03:30:36;-9.60;87.24
65470;DHT22;52067;50.710;14.492;2023-12-04T03:33:01;-9.44;86.14
65470;DHT22;52067;50.710;14.492;2023-12-04T03:35:27;-9.42;84.41
65470;DHT22;52067;50.710;14.492;2023-12-04T03:37:52;-9.44;84.48
65470;DHT22;52067;50.710;14.492;2023-12-04T03:40:18;-9.49;84.16
65470;DHT22;52067;50.710;14.492;2023-12-04T03:42:43;-9.43;84.33
65470;DHT22;52067;50.710;14.492;2023-12-04T03:45:09;-9.33;85.04
65470;DHT22;52067;50.710;14.492;2023-12-04T03:47:34;-9.25;85.27
65470;DHT22;52067;50.710;14.492;2023-12-04T03:50:00;-9.29;84.90
65470;DHT22;52067;50.710;14.492;2023-12-04T03:52:25;-9.25;84.18
65470;DHT22;52067;50.710;14.492;2023-12-04T03:54:51;-9.18;83.70
65470;DHT22;52067;50.710;14.492;2023-12-04T03:57:16;-9.11;84.15
65470;DHT22;52067;50.710;14.492;2023-12-04T03:59:43;-9.12;84.74
65470;DHT22;52067;50.710;14.492;2023-12-04T04:02:08;-9.07;85.56
65470;DHT22;52067;50.710;14.492;2023-12-04T04:04:34;-8.92;85.44
65470;DHT22;52067;50.710;14.492;2023-12-04T04:06:59;-8.92;87.40
65470;DHT22;52067;50.710;14.492;2023-12-04T04:09:25;-8.72;87.19
65470;DHT22;52067;50.710;14.492;2023-12-04T04:11:50;-8.97;86.82
65470;DHT22;52067;50.710;14.492;2023-12-04T04:14:16;-9.29;87.17
65470;DHT22;52067;50.710;14.492;2023-12-04T04:16:41;-8.95;87.23
65470;DHT22;52067;50.710;14.492;2023-12-04T04:19:06;-8.65;86.86
65470;DHT22;52067;50.710;14.492;2023-12-04T04:21:32;-8.49;85.94
65470;DHT22;52067;50.710;14.492;2023-12-04T04:23:57;-8.44;85.92
65470;DHT22;52067;50.710;14.492;2023-12-04T04:26:23;-8.23;85.97
65470;DHT22;52067;50.710;14.492;2023-12-04T04:28:48;-8.41;86.03
65470;DHT22;52067;50.710;14.492;2023-12-04T04:31:13;-8.33;85.94
65470;DHT22;52067;50.710;14.492;2023-12-04T04:33:39;-8.30;85.72
65470;DHT22;52067;50.710;14.492;2023-12-04T04:36:04;-8.23;85.67
65470;DHT22;52067;50.710;14.492;2023-12-04T04:38:30;-8.36;85.77
65470;DHT22;52067;50.710;14.492;2023-12-04T04:40:55;-8.39;85.72
65470;DHT22;52067;50.710;14.492;2023-12-04T04:43:21;-8.49;85.38
65470;DHT22;52067;50.710;14.492;2023-12-04T04:45:46;-8.62;85.29
65470;DHT22;52067;50.710;14.492;2023-12-04T04:48:39;-8.56;85.52
65470;DHT22;52067;50.710;14.492;2023-12-04T04:51:21;-8.67;85.85
65470;DHT22;52067;50.710;14.492;2023-12-04T04:53:47;-8.57;88.25
65470;DHT22;52067;50.710;14.492;2023-12-04T04:56:13;-8.65;89.78
65470;DHT22;52067;50.710;14.492;2023-12-04T04:58:39;-8.39;90.46
65470;DHT22;52067;50.710;14.492;2023-12-04T05:01:04;-8.39;90.75
65470;DHT22;52067;50.710;14.492;2023-12-04T05:03:30;-8.19;90.51
65470;DHT22;52067;50.710;14.492;2023-12-04T05:05:55;-8.22;89.59
65470;DHT22;52067;50.710;14.492;2023-12-04T05:08:21;-8.18;89.47
65470;DHT22;52067;50.710;14.492;2023-12-04T05:10:46;-8.02;88.73
65470;DHT22;52067;50.710;14.492;2023-12-04T05:13:12;-7.99;87.87
65470;DHT22;52067;50.710;14.492;2023-12-04T05:15:37;-7.87;87.97
65470;DHT22;52067;50.710;14.492;2023-12-04T05:18:03;-7.87;88.21
65470;DHT22;52067;50.710;14.492;2023-12-04T05:20:28;-7.77;88.55
65470;DHT22;52067;50.710;14.492;2023-12-04T05:22:54;-7.71;88.88
65470;DHT22;52067;50.710;14.492;2023-12-04T05:25:19;-7.80;88.65
65470;DHT22;52067;50.710;14.492;2023-12-04T05:27:45;-7.84;88.61
65470;DHT22;52067;50.710;14.492;2023-12-04T05:30:11;-7.61;88.31
65470;DHT22;52067;50.710;14.492;2023-12-04T05:32:36;-7.51;87.30
65470;DHT22;52067;50.710;14.492;2023-12-04T05:35:02;-7.61;87.42
65470;DHT22;52067;50.710;14.492;2023-12-04T05:37:28;-7.41;88.11
65470;DHT22;52067;50.710;14.492;2023-12-04T05:39:53;-7.23;88.31
65470;DHT22;52067;50.710;14.492;2023-12-04T05:42:19;-7.19;88.02
65470;DHT22;52067;50.710;14.492;2023-12-04T05:44:44;-7.23;88.47
65470;DHT22;52067;50.710;14.492;2023-12-04T05:47:10;-7.66;88.79
65470;DHT22;52067;50.710;14.492;2023-12-04T05:49:35;-7.41;88.85
65470;DHT22;52067;50.710;14.492;2023-12-04T05:52:01;-7.43;89.86
65470;DHT22;52067;50.710;14.492;2023-12-04T05:54:26;-7.20;89.90
65470;DHT22;52067;50.710;14.492;2023-12-04T05:56:51;-7.32;90.25
65470;DHT22;52067;50.710;14.492;2023-12-04T05:59:17;-7.18;90.46
65470;DHT22;52067;50.710;14.492;2023-12-04T06:01:43;-7.05;90.22
65470;DHT22;52067;50.710;14.492;2023-12-04T06:04:08;-6.87;89.91
65470;DHT22;52067;50.710;14.492;2023-12-04T06:06:34;-6.67;89.74
65470;DHT22;52067;50.710;14.492;2023-12-04T06:08:59;-6.74;89.65
65470;DHT22;52067;50.710;14.492;2023-12-04T06:11:25;-6.47;89.75
65470;DHT22;52067;50.710;14.492;2023-12-04T06:13:50;-6.54;90.10
65470;DHT22;52067;50.710;14.492;2023-12-04T06:16:16;-6.65;89.93
65470;DHT22;52067;50.710;14.492;2023-12-04T06:18:41;-6.47;90.37
65470;DHT22;52067;50.710;14.492;2023-12-04T06:21:07;-6.34;90.54
65470;DHT22;52067;50.710;14.492;2023-12-04T06:23:34;-6.24;90.42
65470;DHT22;52067;50.710;14.492;2023-12-04T06:26:00;-6.16;90.45
65470;DHT22;52067;50.710;14.492;2023-12-04T06:28:26;-6.07;90.26
65470;DHT22;52067;50.710;14.492;2023-12-04T06:30:52;-6.12;90.00
65470;DHT22;52067;50.710;14.492;2023-12-04T06:33:18;-6.06;90.12
65470;DHT22;52067;50.710;14.492;2023-12-04T06:35:45;-6.36;90.70
65470;DHT22;52067;50.710;14.492;2023-12-04T06:38:19;-6.10;90.95
65470;DHT22;52067;50.710;14.492;2023-12-04T06:40:48;-5.91;90.50
65470;DHT22;52067;50.710;14.492;2023-12-04T06:43:14;-5.86;90.11
65470;DHT22;52067;50.710;14.492;2023-12-04T06:45:41;-5.93;89.77
65470;DHT22;52067;50.710;14.492;2023-12-04T06:48:07;-6.14;90.44
65470;DHT22;52067;50.710;14.492;2023-12-04T06:50:34;-6.09;90.40
65470;DHT22;52067;50.710;14.492;2023-12-04T06:53:00;-6.17;90.51
65470;DHT22;52067;50.710;14.492;2023-12-04T06:55:25;-6.29;90.62
65470;DHT22;52067;50.710;14.492;2023-12-04T06:57:51;-6.53;90.49
65470;DHT22;52067;50.710;14.492;2023-12-04T07:00:16;-6.55;90.08
65470;DHT22;52067;50.710;14.492;2023-12-04T07:02:42;-6.65;89.68
65470;DHT22;52067;50.710;14.492;2023-12-04T07:05:07;-6.68;89.99
65470;DHT22;52067;50.710;14.492;2023-12-04T07:07:33;-6.65;89.95
65470;DHT22;52067;50.710;14.492;2023-12-04T07:09:58;-6.57;90.04
65470;DHT22;52067;50.710;14.492;2023-12-04T07:12:24;-6.23;89.46
65470;DHT22;52067;50.710;14.492;2023-12-04T07:14:49;-6.02;88.42
65470;DHT22;52067;50.710;14.492;2023-12-04T07:17:15;-6.45;88.39
65470;DHT22;52067;50.710;14.492;2023-12-04T07:19:41;-6.22;88.86
65470;DHT22;52067;50.710;14.492;2023-12-04T07:22:07;-6.19;88.19
65470;DHT22;52067;50.710;14.492;2023-12-04T07:24:32;-6.34;88.58
65470;DHT22;52067;50.710;14.492;2023-12-04T07:26:58;-6.37;88.58
65470;DHT22;52067;50.710;14.492;2023-12-04T07:29:23;-6.70;88.73
65470;DHT22;52067;50.710;14.492;2023-12-04T07:31:49;-6.41;88.62
65470;DHT22;52067;50.710;14.492;2023-12-04T07:34:14;-6.48;88.49
65470;DHT22;52067;50.710;14.492;2023-12-04T07:36:40;-6.17;87.94
65470;DHT22;52067;50.710;14.492;2023-12-04T07:39:05;-6.23;87.03
65470;DHT22;52067;50.710;14.492;2023-12-04T07:41:34;-6.19;87.66
65470;DHT22;52067;50.710;14.492;2023-12-04T07:43:59;-6.01;87.06
65470;DHT22;52067;50.710;14.492;2023-12-04T07:46:25;-5.82;86.63
65470;DHT22;52067;50.710;14.492;2023-12-04T07:48:50;-6.06;87.57
65470;DHT22;52067;50.710;14.492;2023-12-04T07:51:16;-5.88;87.66
65470;DHT22;52067;50.710;14.492;2023-12-04T07:53:42;-6.16;88.33
65470;DHT22;52067;50.710;14.492;2023-12-04T07:56:07;-6.38;89.37
65470;DHT22;52067;50.710;14.492;2023-12-04T07:58:33;-6.01;89.16
65470;DHT22;52067;50.710;14.492;2023-12-04T08:00:58;-5.35;88.17
65470;DHT22;52067;50.710;14.492;2023-12-04T08:03:24;-5.10;86.51
65470;DHT22;52067;50.710;14.492;2023-12-04T08:05:53;-4.96;85.34
65470;DHT22;52067;50.710;14.492;2023-12-04T08:08:18;-5.51;86.11
65470;DHT22;52067;50.710;14.492;2023-12-04T08:10:44;-5.40;86.04
65470;DHT22;52067;50.710;14.492;2023-12-04T08:13:09;-5.54;87.27
65470;DHT22;52067;50.710;14.492;2023-12-04T08:15:35;-5.12;85.88
65470;DHT22;52067;50.710;14.492;2023-12-04T08:18:00;-4.96;84.56
65470;DHT22;52067;50.710;14.492;2023-12-04T08:20:26;-4.78;84.77
65470;DHT22;52067;50.710;14.492;2023-12-04T08:22:51;-4.60;83.33
65470;DHT22;52067;50.710;14.492;2023-12-04T08:25:17;-4.50;82.59
65470;DHT22;52067;50.710;14.492;2023-12-04T08:27:42;-4.27;82.79
65470;DHT22;52067;50.710;14.492;2023-12-04T08:30:08;-4.27;82.69
65470;DHT22;52067;50.710;14.492;2023-12-04T08:32:33;-4.04;82.03
65470;DHT22;52067;50.710;14.492;2023-12-04T08:34:59;-4.00;81.40
65470;DHT22;52067;50.710;14.492;2023-12-04T08:37:24;-3.89;81.37
65470;DHT22;52067;50.710;14.492;2023-12-04T08:39:50;-3.83;80.99
65470;DHT22;52067;50.710;14.492;2023-12-04T08:42:15;-3.71;80.39
65470;DHT22;52067;50.710;14.492;2023-12-04T08:44:40;-3.62;80.95
65470;DHT22;52067;50.710;14.492;2023-12-04T08:47:06;-3.52;80.12
65470;DHT22;52067;50.710;14.492;2023-12-04T08:49:32;-3.92;79.95
65470;DHT22;52067;50.710;14.492;2023-12-04T08:51:57;-3.69;81.27
65470;DHT22;52067;50.710;14.492;2023-12-04T08:54:24;-3.55;79.78
65470;DHT22;52067;50.710;14.492;2023-12-04T08:56:50;-3.51;79.48
65470;DHT22;52067;50.710;14.492;2023-12-04T08:59:15;-3.59;79.90
65470;DHT22;52067;50.710;14.492;2023-12-04T09:01:42;-3.35;79.96
65470;DHT22;52067;50.710;14.492;2023-12-04T09:04:08;-3.40;79.81
65470;DHT22;52067;50.710;14.492;2023-12-04T09:06:33;-3.25;80.03
65470;DHT22;52067;50.710;14.492;2023-12-04T09:08:59;-3.61;80.38
65470;DHT22;52067;50.710;14.492;2023-12-04T09:11:24;-3.50;80.49
65470;DHT22;52067;50.710;14.492;2023-12-04T09:13:50;-2.93;79.37
65470;DHT22;52067;50.710;14.492;2023-12-04T09:16:15;-2.65;78.45
65470;DHT22;52067;50.710;14.492;2023-12-04T09:18:40;-2.65;78.63
65470;DHT22;52067;50.710;14.492;2023-12-04T09:21:06;-2.61;78.77
65470;DHT22;52067;50.710;14.492;2023-12-04T09:23:36;-2.68;79.40
65470;DHT22;52067;50.710;14.492;2023-12-04T09:26:01;-2.70;79.70
65470;DHT22;52067;50.710;14.492;2023-12-04T09:28:27;-2.45;79.41
65470;DHT22;52067;50.710;14.492;2023-12-04T09:30:52;-2.37;79.00
65470;DHT22;52067;50.710;14.492;2023-12-04T09:33:18;-2.25;78.68
65470;DHT22;52067;50.710;14.492;2023-12-04T09:35:43;-3.25;82.58
65470;DHT22;52067;50.710;14.492;2023-12-04T09:38:10;-3.51;84.02
65470;DHT22;52067;50.710;14.492;2023-12-04T09:40:35;-3.17;83.76
65470;DHT22;52067;50.710;14.492;2023-12-04T09:43:01;-2.68;83.33
65470;DHT22;52067;50.710;14.492;2023-12-04T09:45:28;-1.97;80.67
65470;DHT22;52067;50.710;14.492;2023-12-04T09:47:54;-1.82;78.97
65470;DHT22;52067;50.710;14.492;2023-12-04T09:50:20;-1.18;78.25
65470;DHT22;52067;50.710;14.492;2023-12-04T09:52:51;-1.05;75.34
65470;DHT22;52067;50.710;14.492;2023-12-04T09:55:16;-0.90;75.31
65470;DHT22;52067;50.710;14.492;2023-12-04T09:57:44;-1.94;79.90
65470;DHT22;52067;50.710;14.492;2023-12-04T10:00:11;-1.44;79.25
65470;DHT22;52067;50.710;14.492;2023-12-04T10:02:39;-0.77;76.73
65470;DHT22;52067;50.710;14.492;2023-12-04T10:05:05;-0.50;75.07
65470;DHT22;52067;50.710;14.492;2023-12-04T10:07:31;-0.81;76.19
65470;DHT22;52067;50.710;14.492;2023-12-04T10:09:56;-0.91;74.88
65470;DHT22;52067;50.710;14.492;2023-12-04T10:12:22;-1.15;75.91
65470;DHT22;52067;50.710;14.492;2023-12-04T10:15:05;-0.81;75.81
65470;DHT22;52067;50.710;14.492;2023-12-04T10:17:39;-0.81;74.69
65470;DHT22;52067;50.710;14.492;2023-12-04T10:20:13;-0.43;74.95
65470;DHT22;52067;50.710;14.492;2023-12-04T10:22:59;-0.19;75.22
65470;DHT22;52067;50.710;14.492;2023-12-04T10:25:26;0.05;74.29
65470;DHT22;52067;50.710;14.492;2023-12-04T10:27:54;0.29;74.15
65470;DHT22;52067;50.710;14.492;2023-12-04T10:30:26;0.47;73.96
65470;DHT22;52067;50.710;14.492;2023-12-04T10:33:01;-0.08;75.68
65470;DHT22;52067;50.710;14.492;2023-12-04T10:35:30;0.12;76.11
65470;DHT22;52067;50.710;14.492;2023-12-04T10:37:56;-0.36;77.34
65470;DHT22;52067;50.710;14.492;2023-12-04T10:40:23;-0.67;77.67
65470;DHT22;52067;50.710;14.492;2023-12-04T10:42:48;-0.66;78.50
65470;DHT22;52067;50.710;14.492;2023-12-04T10:45:14;-1.09;79.29
65470;DHT22;52067;50.710;14.492;2023-12-04T10:47:39;-1.05;79.61
65470;DHT22;52067;50.710;14.492;2023-12-04T10:50:05;-1.00;79.67
65470;DHT22;52067;50.710;14.492;2023-12-04T10:52:33;-1.03;79.63
65470;DHT22;52067;50.710;14.492;2023-12-04T10:54:58;-0.42;78.43
65470;DHT22;52067;50.710;14.492;2023-12-04T10:57:36;0.13;76.87
65470;DHT22;52067;50.710;14.492;2023-12-04T11:00:04;0.53;74.89
65470;DHT22;52067;50.710;14.492;2023-12-04T11:02:34;0.64;73.96
65470;DHT22;52067;50.710;14.492;2023-12-04T11:05:08;0.75;73.63
65470;DHT22;52067;50.710;14.492;2023-12-04T11:07:40;1.22;72.67
65470;DHT22;52067;50.710;14.492;2023-12-04T11:10:07;0.56;74.22
65470;DHT22;52067;50.710;14.492;2023-12-04T11:12:37;0.54;73.93
65470;DHT22;52067;50.710;14.492;2023-12-04T11:15:06;0.64;73.72
65470;DHT22;52067;50.710;14.492;2023-12-04T11:17:34;0.91;73.64
65470;DHT22;52067;50.710;14.492;2023-12-04T11:20:08;0.33;74.95
65470;DHT22;52067;50.710;14.492;2023-12-04T11:22:37;0.29;75.57
65470;DHT22;52067;50.710;14.492;2023-12-04T11:25:06;-0.15;76.50
65470;DHT22;52067;50.710;14.492;2023-12-04T11:27:33;-0.45;77.14
65470;DHT22;52067;50.710;14.492;2023-12-04T11:30:00;-0.52;78.13
65470;DHT22;52067;50.710;14.492;2023-12-04T11:32:28;-0.52;77.76
65470;DHT22;52067;50.710;14.492;2023-12-04T11:34:55;-0.65;77.51
65470;DHT22;52067;50.710;14.492;2023-12-04T11:37:23;-0.69;77.25
65470;DHT22;52067;50.710;14.492;2023-12-04T11:39:50;-0.84;77.37
65470;DHT22;52067;50.710;14.492;2023-12-04T11:42:23;-0.66;77.12
65470;DHT22;52067;50.710;14.492;2023-12-04T11:44:49;-0.80;77.83
65470;DHT22;52067;50.710;14.492;2023-12-04T11:47:15;-0.57;77.02
65470;DHT22;52067;50.710;14.492;2023-12-04T11:49:40;-0.30;76.48
65470;DHT22;52067;50.710;14.492;2023-12-04T11:52:06;-0.35;76.91
65470;DHT22;52067;50.710;14.492;2023-12-04T11:55:02;-0.45;76.65
65470;DHT22;52067;50.710;14.492;2023-12-04T11:57:40;-0.17;75.84
65470;DHT22;52067;50.710;14.492;2023-12-04T12:00:09;0.36;74.53
65470;DHT22;52067;50.710;14.492;2023-12-04T12:02:38;0.40;73.22
65470;DHT22;52067;50.710;14.492;2023-12-04T12:05:04;0.61;72.44
65470;DHT22;52067;50.710;14.492;2023-12-04T12:07:30;0.13;73.31
65470;DHT22;52067;50.710;14.492;2023-12-04T12:09:55;-0.29;75.40
65470;DHT22;52067;50.710;14.492;2023-12-04T12:12:21;-0.07;75.09
65470;DHT22;52067;50.710;14.492;2023-12-04T12:14:49;0.06;74.67
65470;DHT22;52067;50.710;14.492;2023-12-04T12:17:14;-0.39;75.69
65470;DHT22;52067;50.710;14.492;2023-12-04T12:19:39;-0.96;77.66
65470;DHT22;52067;50.710;14.492;2023-12-04T12:22:05;-0.63;76.97
65470;DHT22;52067;50.710;14.492;2023-12-04T12:24:30;-1.03;77.98
65470;DHT22;52067;50.710;14.492;2023-12-04T12:26:56;-0.59;77.03
65470;DHT22;52067;50.710;14.492;2023-12-04T12:29:21;-0.38;76.49
65470;DHT22;52067;50.710;14.492;2023-12-04T12:31:46;-0.39;76.69
65470;DHT22;52067;50.710;14.492;2023-12-04T12:34:15;-0.62;77.23
65470;DHT22;52067;50.710;14.492;2023-12-04T12:36:41;-0.38;76.95
65470;DHT22;52067;50.710;14.492;2023-12-04T12:39:06;-0.56;77.30
65470;DHT22;52067;50.710;14.492;2023-12-04T12:41:33;-0.81;77.90
65470;DHT22;52067;50.710;14.492;2023-12-04T12:44:00;-0.60;77.95
65470;DHT22;52067;50.710;14.492;2023-12-04T12:46:26;-0.63;77.67
65470;DHT22;52067;50.710;14.492;2023-12-04T12:48:54;-0.48;77.57
65470;DHT22;52067;50.710;14.492;2023-12-04T12:51:23;-0.45;76.87
65470;DHT22;52067;50.710;14.492;2023-12-04T12:53:52;-0.19;76.72
65470;DHT22;52067;50.710;14.492;2023-12-04T12:56:20;-0.12;76.77
65470;DHT22;52067;50.710;14.492;2023-12-04T12:58:47;-0.19;76.43
65470;DHT22;52067;50.710;14.492;2023-12-04T13:01:18;-0.32;76.90
65470;DHT22;52067;50.710;14.492;2023-12-04T13:03:47;-0.53;77.25
65470;DHT22;52067;50.710;14.492;2023-12-04T13:06:12;-0.93;77.98
65470;DHT22;52067;50.710;14.492;2023-12-04T13:08:38;-1.18;78.82
65470;DHT22;52067;50.710;14.492;2023-12-04T13:11:04;-1.22;79.73
65470;DHT22;52067;50.710;14.492;2023-12-04T13:13:29;-1.25;79.42
65470;DHT22;52067;50.710;14.492;2023-12-04T13:15:57;-1.21;79.45
65470;DHT22;52067;50.710;14.492;2023-12-04T13:18:23;-1.15;79.66
65470;DHT22;52067;50.710;14.492;2023-12-04T13:20:48;-1.21;79.90
65470;DHT22;52067;50.710;14.492;2023-12-04T13:23:14;-1.04;79.36
65470;DHT22;52067;50.710;14.492;2023-12-04T13:25:39;-0.97;79.01
65470;DHT22;52067;50.710;14.492;2023-12-04T13:28:05;-1.11;78.82
65470;DHT22;52067;50.710;14.492;2023-12-04T13:30:31;-1.32;79.65
65470;DHT22;52067;50.710;14.492;2023-12-04T13:32:56;-1.34;79.67
65470;DHT22;52067;50.710;14.492;2023-12-04T13:35:21;-1.34;79.89
65470;DHT22;52067;50.710;14.492;2023-12-04T13:37:47;-1.36;80.13
65470;DHT22;52067;50.710;14.492;2023-12-04T13:40:19;-1.32;80.05
65470;DHT22;52067;50.710;14.492;2023-12-04T13:42:45;-1.30;80.13
65470;DHT22;52067;50.710;14.492;2023-12-04T13:45:28;-1.41;80.48
65470;DHT22;52067;50.710;14.492;2023-12-04T13:47:54;-1.49;80.93
65470;DHT22;52067;50.710;14.492;2023-12-04T13:50:20;-1.51;80.83
65470;DHT22;52067;50.710;14.492;2023-12-04T13:52:45;-1.54;81.04
65470;DHT22;52067;50.710;14.492;2023-12-04T13:55:20;-1.51;81.09
65470;DHT22;52067;50.710;14.492;2023-12-04T13:57:47;-1.58;81.54
65470;DHT22;52067;50.710;14.492;2023-12-04T14:00:34;-1.56;81.53
65470;DHT22;52067;50.710;14.492;2023-12-04T14:03:02;-1.58;81.58
65470;DHT22;52067;50.710;14.492;2023-12-04T14:05:33;-1.44;81.56
65470;DHT22;52067;50.710;14.492;2023-12-04T14:07:59;-1.48;81.55
65470;DHT22;52067;50.710;14.492;2023-12-04T14:10:26;-1.62;81.57
65470;DHT22;52067;50.710;14.492;2023-12-04T14:12:52;-1.69;82.04
65470;DHT22;52067;50.710;14.492;2023-12-04T14:15:17;-1.73;82.26
65470;DHT22;52067;50.710;14.492;2023-12-04T14:17:43;-1.67;82.24
65470;DHT22;52067;50.710;14.492;2023-12-04T14:20:08;-1.75;82.36
65470;DHT22;52067;50.710;14.492;2023-12-04T14:22:42;-1.80;82.90
65470;DHT22;52067;50.710;14.492;2023-12-04T14:25:07;-1.85;82.89
65470;DHT22;52067;50.710;14.492;2023-12-04T14:27:33;-1.79;82.85
65470;DHT22;52067;50.710;14.492;2023-12-04T14:29:59;-1.85;82.92
65470;DHT22;52067;50.710;14.492;2023-12-04T14:32:24;-1.80;83.10
65470;DHT22;52067;50.710;14.492;2023-12-04T14:34:49;-1.87;83.34
65470;DHT22;52067;50.710;14.492;2023-12-04T14:37:15;-1.93;83.57
65470;DHT22;52067;50.710;14.492;2023-12-04T14:39:41;-1.87;83.45
65470;DHT22;52067;50.710;14.492;2023-12-04T14:42:06;-1.94;83.49
65470;DHT22;52067;50.710;14.492;2023-12-04T14:44:32;-1.90;83.48
65470;DHT22;52067;50.710;14.492;2023-12-04T14:46:57;-1.96;83.47
65470;DHT22;52067;50.710;14.492;2023-12-04T14:49:24;-1.94;83.40
65470;DHT22;52067;50.710;14.492;2023-12-04T14:51:49;-2.08;83.92
65470;DHT22;52067;50.710;14.492;2023-12-04T14:54:15;-1.97;84.18
65470;DHT22;52067;50.710;14.492;2023-12-04T14:56:49;-1.87;83.59
65470;DHT22;52067;50.710;14.492;2023-12-04T14:59:33;-2.00;83.88
65470;DHT22;52067;50.710;14.492;2023-12-04T15:02:18;-2.03;84.23
65470;DHT22;52067;50.710;14.492;2023-12-04T15:04:43;-2.00;84.49
65470;DHT22;52067;50.710;14.492;2023-12-04T15:07:27;-1.91;84.02
65470;DHT22;52067;50.710;14.492;2023-12-04T15:09:59;-1.91;84.05
65470;DHT22;52067;50.710;14.492;2023-12-04T15:12:43;-2.00;84.23
65470;DHT22;52067;50.710;14.492;2023-12-04T15:15:11;-1.85;84.09